Terminal Aerodrome Forecast
Issued by NWS Lake Charles, LA

Home | Current Version | Previous Version | Text Only | Print | Product List | Glossary On
Versions: 1 2 3 4 5 6 7 8 9 10 11 12 13 14 15 16 17 18 19 20 21 22 23 24 25
000
FTUS44 KLCH 211700
TAFLCH
TAF
KLCH 211733Z 2118/2218 09004KT 2SM BR OVC002
      TEMPO 2118/2119 5SM BR SCT005 OVC015
     FM211900 11005KT P6SM BKN015 OVC025
     FM220500 16003KT 5SM BR BKN015
     FM220900 18005KT 2SM BR OVC007=

USA.gov is the U.S. government's official web portal to all federal, state and local government web resources and services.